Terminal Aerodrome Forecast
Issued by NWS Cleveland, OH

Home | Current Version | Previous Version | Graphics & Text | Print | Product List | Glossary On
Versions: 1 2 3 4 5 6 7 8 9 10 11 12 13 14 15 16 17 18 19
589
FTUS41 KCLE 012037 AAA
TAFCAK
TAF AMD
KCAK 012037Z 0121/0218 24014G20KT P6SM BKN028 OVC040
      TEMPO 0121/0124 BKN035
     FM020000 25011KT P6SM OVC025=

USA.gov is the U.S. government's official web portal to all federal, state and local government web resources and services.